createdAt,value
2022-09-13T00:02:17.797Z,100928.41
2022-09-13T00:04:50.687Z,100926.94
2022-09-13T00:07:25.004Z,100925.94
2022-09-13T00:09:57.626Z,100928.31
2022-09-13T00:12:30.414Z,100929.34
2022-09-13T00:15:03.265Z,100924.63
2022-09-13T00:17:36.091Z,100930.53
2022-09-13T00:20:09.879Z,100933.88
2022-09-13T00:22:44.027Z,100935.13
2022-09-13T00:25:16.714Z,100926.06
2022-09-13T00:27:49.436Z,100938.28
2022-09-13T00:30:22.268Z,100940.50
2022-09-13T00:32:55.296Z,100924.72
2022-09-13T00:35:28.220Z,100928.06
2022-09-13T00:38:03.083Z,100925.06
2022-09-13T00:40:38.827Z,100925.06
2022-09-13T00:43:18.983Z,100930.09
2022-09-13T00:45:51.709Z,100934.69
2022-09-13T00:48:25.724Z,100935.91
2022-09-13T00:50:58.627Z,100946.97
2022-09-13T00:53:36.926Z,100945.19
2022-09-13T00:56:15.411Z,100932.66
2022-09-13T00:58:53.728Z,100928.09
2022-09-13T01:01:33.474Z,100927.06
2022-09-13T01:04:08.712Z,100934.13
2022-09-13T01:06:45.381Z,100932.91
2022-09-13T01:09:19.463Z,100936.91
2022-09-13T01:12:00.656Z,100932.00
2022-09-13T01:14:34.393Z,100930.31
2022-09-13T01:17:07.120Z,100931.78
2022-09-13T01:19:43.019Z,100924.28
2022-09-13T01:23:03.372Z,100929.88
2022-09-13T01:26:02.987Z,100923.09
2022-09-13T01:28:58.907Z,100919.94
2022-09-13T01:31:38.320Z,100919.59
2022-09-13T01:34:23.592Z,100914.16
2022-09-13T01:37:25.418Z,100913.69
2022-09-13T01:40:06.269Z,100906.56
2022-09-13T01:42:57.970Z,100903.41
2022-09-13T01:45:39.778Z,100896.84
2022-09-13T01:48:21.666Z,100894.16
2022-09-13T01:51:03.827Z,100888.78
2022-09-13T01:53:49.637Z,100896.25
2022-09-13T01:56:27.981Z,100889.66
2022-09-13T01:59:05.985Z,100891.25
2022-09-13T02:01:45.098Z,100892.59
2022-09-13T02:04:24.111Z,100893.91
2022-09-13T02:07:04.092Z,100900.19
2022-09-13T02:09:42.783Z,100898.63
2022-09-13T02:12:19.325Z,100901.28
2022-09-13T02:14:57.293Z,100902.41
2022-09-13T02:17:37.170Z,100900.41
2022-09-13T02:20:15.010Z,100901.19
2022-09-13T02:22:52.619Z,100899.31
2022-09-13T02:25:28.531Z,100901.88
2022-09-13T02:28:07.745Z,100904.28
2022-09-13T02:30:44.807Z,100906.31
2022-09-13T02:33:20.787Z,100898.72
2022-09-13T02:35:58.270Z,100908.31
2022-09-13T02:38:34.732Z,100899.63
2022-09-13T02:41:15.058Z,100898.16
2022-09-13T02:43:52.213Z,100904.63
2022-09-13T02:46:40.897Z,100904.63
2022-09-13T02:49:24.653Z,100898.06
2022-09-13T02:52:08.570Z,100905.41
2022-09-13T02:54:49.815Z,100895.16
2022-09-13T02:57:32.315Z,100895.16
2022-09-13T03:00:05.687Z,100908.28
2022-09-13T03:02:41.783Z,100905.41
2022-09-13T03:05:14.525Z,100905.09
2022-09-13T03:07:50.394Z,100916.31
2022-09-13T03:10:23.706Z,100912.84
2022-09-13T03:13:24.222Z,100908.72
2022-09-13T03:16:07.741Z,100903.53
2022-09-13T03:18:54.395Z,100907.88
2022-09-13T03:21:42.346Z,100910.59
2022-09-13T03:24:24.603Z,100902.78
2022-09-13T03:27:17.726Z,100912.06
2022-09-13T03:29:57.143Z,100912.06
2022-09-13T03:32:38.349Z,100915.19
2022-09-13T03:35:24.287Z,100916.97
2022-09-13T03:38:03.246Z,100908.94
2022-09-13T03:40:45.171Z,100915.75
2022-09-13T03:43:26.782Z,100913.72
2022-09-13T03:46:05.091Z,100915.31
2022-09-13T03:48:40.469Z,100918.53
2022-09-13T03:51:14.838Z,100917.88
2022-09-13T03:53:51.386Z,100923.66
2022-09-13T03:56:25.889Z,100918.06
2022-09-13T03:58:58.609Z,100916.94
2022-09-13T04:01:31.497Z,100916.50
2022-09-13T04:04:04.305Z,100920.72
2022-09-13T04:06:37.026Z,100916.47
2022-09-13T04:09:09.995Z,100915.69
2022-09-13T04:11:44.201Z,100922.91
2022-09-13T04:14:17.213Z,100925.63
2022-09-13T04:16:50.492Z,100931.28
2022-09-13T04:19:23.674Z,100934.19
2022-09-13T04:21:57.066Z,100942.75
2022-09-13T04:24:31.285Z,100936.59
2022-09-13T04:27:05.909Z,100931.34
2022-09-13T04:29:39.084Z,100932.22
2022-09-13T04:32:11.881Z,100935.81
2022-09-13T04:34:44.747Z,100935.47
2022-09-13T04:37:17.656Z,100937.56
2022-09-13T04:39:50.460Z,100939.03
2022-09-13T04:42:24.874Z,100942.25
2022-09-13T04:44:57.599Z,100942.03
2022-09-13T04:47:30.907Z,100941.38
2022-09-13T04:50:03.800Z,100943.13
2022-09-13T04:52:36.730Z,100937.56
2022-09-13T04:55:10.210Z,100946.81
2022-09-13T04:57:44.331Z,100943.56
2022-09-13T05:00:17.332Z,100947.16
2022-09-13T05:02:50.130Z,100946.63
2022-09-13T05:05:23.069Z,100951.50
2022-09-13T05:07:55.773Z,100951.16
2022-09-13T05:10:28.605Z,100942.47
2022-09-13T05:13:02.758Z,100948.03
2022-09-13T05:15:35.470Z,100954.28
2022-09-13T05:18:08.076Z,100950.44
2022-09-13T05:20:40.810Z,100952.19
2022-09-13T05:23:13.531Z,100951.06
2022-09-13T05:25:47.458Z,100941.22
2022-09-13T05:28:21.731Z,100944.44
2022-09-13T05:30:58.421Z,100947.84
2022-09-13T05:33:33.521Z,100947.34
2022-09-13T05:36:07.316Z,100939.84
2022-09-13T05:38:40.536Z,100947.78
2022-09-13T05:41:13.271Z,100953.75
2022-09-13T05:43:47.587Z,100956.56
2022-09-13T05:46:21.827Z,100956.81
2022-09-13T05:48:54.574Z,100953.75
2022-09-13T05:51:27.963Z,100951.88
2022-09-13T05:54:00.627Z,100963.34
2022-09-13T05:56:33.271Z,100957.44
2022-09-13T05:59:08.973Z,100966.91
2022-09-13T06:01:41.800Z,100968.06
2022-09-13T06:04:14.609Z,100966.13
2022-09-13T06:06:47.320Z,100967.09
2022-09-13T06:09:20.105Z,100974.59
2022-09-13T06:11:52.787Z,100967.03
2022-09-13T06:14:26.942Z,100979.28
2022-09-13T06:16:59.754Z,100976.75
2022-09-13T06:19:32.558Z,100973.97
2022-09-13T06:22:05.444Z,100973.09
2022-09-13T06:24:38.868Z,100979.03
2022-09-13T06:27:11.849Z,100976.75
2022-09-13T06:29:45.878Z,100979.03
2022-09-13T06:32:18.677Z,100976.94
2022-09-13T06:34:51.396Z,100973.66
2022-09-13T06:37:24.231Z,100967.38
2022-09-13T06:39:57.783Z,100966.91
2022-09-13T06:42:30.568Z,100977.47
2022-09-13T06:45:05.457Z,100982.25
2022-09-13T06:47:38.171Z,100975.03
2022-09-13T06:50:11.290Z,100979.63
2022-09-13T06:52:44.068Z,100981.28
2022-09-13T06:55:16.894Z,100977.28
2022-09-13T06:57:49.916Z,100975.63
2022-09-13T07:00:25.512Z,100972.56
2022-09-13T07:02:58.631Z,100978.66
2022-09-13T07:05:31.518Z,100986.56
2022-09-13T07:08:04.065Z,100977.69
2022-09-13T07:10:36.858Z,100976.25
2022-09-13T07:13:10.177Z,100980.63
2022-09-13T07:15:44.284Z,100980.09
2022-09-13T07:18:17.036Z,100982.19
2022-09-13T07:20:49.730Z,100988.78
2022-09-13T07:23:22.341Z,100996.19
2022-09-13T07:25:55.917Z,100992.41
2022-09-13T07:28:35.125Z,100993.06
2022-09-13T07:31:11.859Z,100991.44
2022-09-13T07:33:45.734Z,100990.72
2022-09-13T07:36:18.509Z,100993.53
2022-09-13T07:38:51.392Z,101001.34
2022-09-13T07:41:26.260Z,101000.13
2022-09-13T07:44:00.613Z,101004.31
2022-09-13T07:46:43.844Z,100996.28
2022-09-13T07:49:18.096Z,100997.81
2022-09-13T07:51:52.974Z,100994.50
2022-09-13T07:54:25.752Z,101008.69
2022-09-13T07:56:58.453Z,101000.31
2022-09-13T07:59:31.148Z,101001.22
2022-09-13T08:02:06.102Z,101001.34
2022-09-13T08:04:39.467Z,101003.47
2022-09-13T08:07:12.412Z,101005.81
2022-09-13T08:09:45.044Z,101009.88
2022-09-13T08:12:17.690Z,101010.44
2022-09-13T08:14:50.381Z,101005.41
2022-09-13T08:17:24.399Z,101002.94
2022-09-13T08:19:57.142Z,101010.41
2022-09-13T08:22:30.217Z,101011.44
2022-09-13T08:25:02.942Z,101017.81
2022-09-13T08:27:35.769Z,101021.97
2022-09-13T08:30:09.541Z,101023.75
2022-09-13T08:32:43.637Z,101021.72
2022-09-13T08:35:16.286Z,101020.81
2022-09-13T08:37:49.138Z,101022.91
2022-09-13T08:40:22.127Z,101019.56
2022-09-13T08:43:03.726Z,101026.47
2022-09-13T08:45:36.536Z,101029.38
2022-09-13T08:48:15.709Z,101032.84
2022-09-13T08:50:53.087Z,101029.63
2022-09-13T08:53:30.266Z,101034.84
2022-09-13T08:56:07.450Z,101033.59
2022-09-13T08:58:51.667Z,101035.56
2022-09-13T09:01:38.081Z,101040.16
2022-09-13T09:04:23.144Z,101037.38
2022-09-13T09:07:03.282Z,101033.34
2022-09-13T09:09:41.221Z,101039.66
2022-09-13T09:12:23.931Z,101041.53
2022-09-13T09:15:03.990Z,101031.06
2022-09-13T09:17:47.314Z,101036.00
2022-09-13T09:20:25.514Z,101033.34
2022-09-13T09:23:03.372Z,101036.63
2022-09-13T09:25:36.446Z,101035.47
2022-09-13T09:28:14.219Z,101030.88
2022-09-13T09:30:59.437Z,101024.91
2022-09-13T09:33:48.210Z,101031.91
2022-09-13T09:36:29.656Z,101030.50
2022-09-13T09:39:05.407Z,101029.19
2022-09-13T09:41:38.505Z,101033.16
2022-09-13T09:44:18.907Z,101043.53
2022-09-13T09:46:56.535Z,101042.91
2022-09-13T09:49:53.831Z,101045.69
2022-09-13T09:52:34.490Z,101039.16
2022-09-13T09:55:24.854Z,101029.59
2022-09-13T09:57:59.921Z,101031.50
2022-09-13T10:00:35.360Z,101033.06
2022-09-13T10:03:18.770Z,101034.41
2022-09-13T10:05:52.156Z,101035.97
2022-09-13T10:08:30.492Z,101036.81
2022-09-13T10:11:04.339Z,101024.53
2022-09-13T10:13:38.368Z,101015.19
2022-09-13T10:16:27.435Z,101012.41
2022-09-13T10:19:25.769Z,101010.84
2022-09-13T10:22:06.719Z,101002.44
2022-09-13T10:24:42.003Z,100992.75
2022-09-13T10:27:32.662Z,101002.94
2022-09-13T10:30:07.085Z,101008.06
2022-09-13T10:32:40.622Z,101019.59
2022-09-13T10:35:19.360Z,101019.59
2022-09-13T10:37:52.886Z,101010.84
2022-09-13T10:40:31.307Z,101013.69
2022-09-13T10:43:08.546Z,101000.25
2022-09-13T10:45:43.534Z,101007.09
2022-09-13T10:48:18.445Z,101005.25
2022-09-13T10:51:07.226Z,101009.91
2022-09-13T10:53:41.891Z,101008.47
2022-09-13T10:56:23.931Z,101016.44
2022-09-13T10:59:16.250Z,101008.97
2022-09-13T11:02:04.067Z,101003.97
2022-09-13T11:05:10.796Z,100999.91
2022-09-13T11:08:03.061Z,101001.31
2022-09-13T11:10:39.606Z,101001.44
2022-09-13T11:13:30.138Z,101002.03
2022-09-13T11:16:15.060Z,101008.19
2022-09-13T11:19:03.837Z,101003.03
2022-09-13T11:21:46.453Z,101004.47
2022-09-13T11:24:40.388Z,101004.19
2022-09-13T11:27:22.888Z,101005.00
2022-09-13T11:30:09.855Z,101001.78
2022-09-13T11:33:04.955Z,101001.22
2022-09-13T11:35:50.491Z,101007.19
2022-09-13T11:38:37.064Z,101018.88
2022-09-13T11:41:28.324Z,101018.53
2022-09-13T11:44:23.722Z,101018.94
2022-09-13T11:47:09.277Z,101027.75
2022-09-13T11:49:58.773Z,101019.63
2022-09-13T11:52:48.191Z,101017.34
2022-09-13T11:55:26.619Z,101008.91
2022-09-13T11:58:04.577Z,101010.19
2022-09-13T12:00:42.968Z,101014.31
2022-09-13T12:03:24.246Z,101008.28
2022-09-13T12:06:01.252Z,100999.13
2022-09-13T12:08:42.222Z,101004.28
2022-09-13T12:11:20.808Z,101014.88
2022-09-13T12:13:56.959Z,101005.38
2022-09-13T12:16:36.247Z,101015.31
2022-09-13T12:19:17.353Z,101005.78
2022-09-13T12:21:52.449Z,101009.88
2022-09-13T12:24:33.621Z,101010.91
2022-09-13T12:27:12.941Z,101005.94
2022-09-13T12:29:50.074Z,101004.41
2022-09-13T12:32:23.671Z,101005.47
2022-09-13T12:35:01.812Z,101006.63
2022-09-13T12:37:56.755Z,101005.09
2022-09-13T12:40:53.621Z,101004.28
2022-09-13T12:43:46.114Z,101006.03
2022-09-13T12:46:33.775Z,101004.59
2022-09-13T12:49:32.626Z,101012.56
2022-09-13T12:52:24.765Z,101006.16
2022-09-13T12:55:53.069Z,101006.34
2022-09-13T12:59:04.031Z,100997.19
2022-09-13T13:01:37.591Z,101008.31
2022-09-13T13:04:16.139Z,101000.53
2022-09-13T13:06:54.073Z,101000.09
2022-09-13T13:09:36.933Z,101012.75
2022-09-13T13:12:10.523Z,101005.31
2022-09-13T13:14:53.147Z,101009.94
2022-09-13T13:17:37.090Z,101002.09
2022-09-13T13:20:42.070Z,101003.78
2022-09-13T13:23:24.631Z,101004.06
2022-09-13T13:26:11.319Z,101014.38
2022-09-13T13:29:06.782Z,101022.00
2022-09-13T13:31:42.814Z,101020.22
2022-09-13T13:34:31.337Z,101020.06
2022-09-13T13:37:06.186Z,101014.91
2022-09-13T13:39:41.786Z,101008.50
2022-09-13T13:42:26.398Z,101016.16
2022-09-13T13:45:25.168Z,101019.44
2022-09-13T13:48:35.573Z,101012.97
2022-09-13T13:51:28.658Z,101013.13
2022-09-13T13:54:03.181Z,101015.50
2022-09-13T13:56:48.045Z,101019.38
2022-09-13T13:59:28.809Z,101020.28
2022-09-13T14:02:02.384Z,101013.59
2022-09-13T14:05:06.080Z,101021.69
2022-09-13T14:08:27.127Z,101022.56
2022-09-13T14:11:11.067Z,101025.25
2022-09-13T14:13:55.117Z,101022.69
2022-09-13T14:16:47.277Z,101019.69
2022-09-13T14:19:24.863Z,101014.06
2022-09-13T14:22:13.087Z,101008.31
2022-09-13T14:24:48.663Z,101009.16
2022-09-13T14:27:24.487Z,101018.19
2022-09-13T14:30:00.139Z,101020.56
2022-09-13T14:32:46.199Z,101027.06
2022-09-13T14:35:27.133Z,101030.19
2022-09-13T14:38:12.379Z,101022.81
2022-09-13T14:40:49.668Z,101025.31
2022-09-13T14:43:24.406Z,101014.03
2022-09-13T14:46:02.140Z,101017.56
2022-09-13T14:48:41.324Z,101015.50
2022-09-13T14:51:19.320Z,101022.09
2022-09-13T14:53:55.261Z,101013.06
2022-09-13T14:56:36.920Z,101022.81
2022-09-13T14:59:16.173Z,101014.34
2022-09-13T15:01:48.839Z,101018.72
2022-09-13T15:04:24.886Z,101016.78
2022-09-13T15:07:19.681Z,101014.63
2022-09-13T15:09:58.589Z,101007.47
2022-09-13T15:12:31.517Z,101011.28
2022-09-13T15:15:38.598Z,101010.03
2022-09-13T15:18:26.132Z,101011.41
2022-09-13T15:21:02.655Z,101019.38
2022-09-13T15:23:38.910Z,101012.06
2022-09-13T15:26:14.657Z,101008.84
2022-09-13T15:28:53.600Z,101014.50
2022-09-13T15:31:28.492Z,101006.75
2022-09-13T15:34:14.523Z,101007.94
2022-09-13T15:36:53.205Z,101007.59
2022-09-13T15:39:27.300Z,100998.28
2022-09-13T15:42:01.981Z,100992.94
2022-09-13T15:44:36.229Z,100996.13
2022-09-13T15:47:12.586Z,100996.94
2022-09-13T15:49:50.113Z,100983.44
2022-09-13T15:52:24.420Z,100983.59
2022-09-13T15:54:57.292Z,100982.63
2022-09-13T15:57:31.088Z,100975.25
2022-09-13T16:00:06.884Z,100971.56
2022-09-13T16:02:42.329Z,100971.94
2022-09-13T16:05:15.264Z,100961.47
2022-09-13T16:07:49.490Z,100963.41
2022-09-13T16:10:23.548Z,100957.75
2022-09-13T16:12:56.409Z,100959.03
2022-09-13T16:15:29.272Z,100952.72
2022-09-13T16:18:02.008Z,100963.66
2022-09-13T16:20:34.561Z,100956.38
2022-09-13T16:23:08.572Z,100950.34
2022-09-13T16:25:41.283Z,100953.50
2022-09-13T16:28:16.212Z,100955.25
2022-09-13T16:30:49.756Z,100951.53
2022-09-13T16:33:22.726Z,100950.06
2022-09-13T16:35:59.127Z,100941.34
2022-09-13T16:38:36.138Z,100942.16
2022-09-13T16:41:11.455Z,100947.50
2022-09-13T16:43:44.170Z,100938.84
2022-09-13T16:46:16.912Z,100936.81
2022-09-13T16:48:55.128Z,100937.47
2022-09-13T16:51:27.917Z,100944.09
2022-09-13T16:54:02.800Z,100935.25
2022-09-13T16:56:35.923Z,100939.25
2022-09-13T16:59:08.779Z,100933.97
2022-09-13T17:01:41.493Z,100933.97
2022-09-13T17:04:14.588Z,100925.84
2022-09-13T17:06:47.326Z,100934.50
2022-09-13T17:09:23.955Z,100926.41
2022-09-13T17:11:56.692Z,100925.63
2022-09-13T17:14:29.731Z,100918.50
2022-09-13T17:17:03.556Z,100925.69
2022-09-13T17:19:36.636Z,100930.28
2022-09-13T17:22:10.757Z,100916.72
2022-09-13T17:24:45.250Z,100916.75
2022-09-13T17:27:17.907Z,100913.81
2022-09-13T17:29:50.791Z,100915.50
2022-09-13T17:32:23.674Z,100905.31
2022-09-13T17:34:56.312Z,100913.13
2022-09-13T17:37:29.110Z,100918.53
2022-09-13T17:40:03.742Z,100927.56
2022-09-13T17:42:36.716Z,100917.72
2022-09-13T17:45:10.131Z,100919.22
2022-09-13T17:47:42.836Z,100922.00
2022-09-13T17:50:16.187Z,100919.94
2022-09-13T17:52:49.017Z,100918.31
2022-09-13T17:55:23.056Z,100919.69
2022-09-13T17:57:55.827Z,100907.53
2022-09-13T18:00:28.851Z,100901.41
2022-09-13T18:03:03.357Z,100912.56
2022-09-13T18:05:36.230Z,100913.22
2022-09-13T18:08:08.899Z,100918.66
2022-09-13T18:11:10.166Z,100922.59
2022-09-13T18:13:36.680Z,100915.75
2022-09-13T18:16:11.180Z,100915.44
2022-09-13T18:18:46.207Z,100921.69
2022-09-13T18:21:20.623Z,100924.16
2022-09-13T18:23:55.317Z,100918.47
2022-09-13T18:26:32.437Z,100926.38
2022-09-13T18:29:06.849Z,100923.31
2022-09-13T18:31:41.262Z,100920.81
2022-09-13T18:34:15.832Z,100931.53
2022-09-13T18:36:48.837Z,100918.00
2022-09-13T18:39:22.134Z,100926.97
2022-09-13T18:41:56.433Z,100910.81
2022-09-13T18:44:30.340Z,100912.34
2022-09-13T18:47:05.283Z,100908.47
2022-09-13T18:49:38.241Z,100911.91
2022-09-13T18:52:12.354Z,100920.06
2022-09-13T18:54:45.222Z,100920.66
2022-09-13T18:57:25.171Z,100921.84
2022-09-13T18:59:59.528Z,100924.75
2022-09-13T19:02:32.681Z,100917.88
2022-09-13T19:05:07.113Z,100928.78
2022-09-13T19:07:41.223Z,100932.19
2022-09-13T19:10:16.081Z,100927.41
2022-09-13T19:12:50.643Z,100938.59
2022-09-13T19:15:23.545Z,100939.28
2022-09-13T19:17:56.480Z,100941.03
2022-09-13T19:20:29.676Z,100949.78
2022-09-13T19:23:02.994Z,100946.81
2022-09-13T19:25:36.168Z,100947.44
2022-09-13T19:28:10.797Z,100949.41
2022-09-13T19:30:47.963Z,100948.84
2022-09-13T19:33:20.830Z,100941.41
2022-09-13T19:35:53.688Z,100942.97
2022-09-13T19:38:26.633Z,100933.06
2022-09-13T19:41:00.232Z,100951.25
2022-09-13T19:43:37.009Z,100954.47
2022-09-13T19:46:12.935Z,100949.25
2022-09-13T19:48:47.661Z,100946.00
2022-09-13T19:51:21.967Z,100949.69
2022-09-13T19:53:57.586Z,100949.88
2022-09-13T19:56:32.774Z,100945.38
2022-09-13T19:59:09.327Z,100944.69
2022-09-13T20:01:44.705Z,100944.03
2022-09-13T20:04:19.852Z,100936.81
2022-09-13T20:06:52.905Z,100941.75
2022-09-13T20:09:29.416Z,100938.44
2022-09-13T20:12:02.499Z,100944.88
2022-09-13T20:14:40.494Z,100941.00
2022-09-13T20:17:13.321Z,100944.38
2022-09-13T20:19:50.078Z,100946.66
2022-09-13T20:22:23.985Z,100939.13
2022-09-13T20:24:57.127Z,100939.66
2022-09-13T20:27:30.887Z,100937.47
2022-09-13T20:30:06.004Z,100934.56
2022-09-13T20:32:38.703Z,100922.00
2022-09-13T20:35:11.832Z,100926.84
2022-09-13T20:37:45.982Z,100927.69
2022-09-13T20:40:18.707Z,100922.59
2022-09-13T20:42:51.511Z,100933.00
2022-09-13T20:45:25.633Z,100933.53
2022-09-13T20:47:58.290Z,100924.66
2022-09-13T20:50:31.107Z,100928.66
2022-09-13T20:53:03.783Z,100927.78
2022-09-13T20:55:38.012Z,100923.09
2022-09-13T20:58:10.710Z,100922.38
2022-09-13T21:00:44.813Z,100921.03
2022-09-13T21:03:17.753Z,100917.78
2022-09-13T21:05:50.332Z,100918.03
2022-09-13T21:08:41.008Z,100918.75
2022-09-13T21:11:15.878Z,100921.72
2022-09-13T21:13:50.020Z,100909.00
2022-09-13T21:16:26.636Z,100914.03
2022-09-13T21:19:00.490Z,100913.34
2022-09-13T21:21:35.936Z,100906.75
2022-09-13T21:24:11.863Z,100913.56
2022-09-13T21:26:44.557Z,100912.31
2022-09-13T21:29:17.220Z,100911.53
2022-09-13T21:31:53.281Z,100909.78
2022-09-13T21:34:27.257Z,100913.19
2022-09-13T21:37:00.078Z,100909.88
2022-09-13T21:39:32.725Z,100916.75
2022-09-13T21:42:05.672Z,100901.25
2022-09-13T21:44:38.892Z,100901.34
2022-09-13T21:47:12.939Z,100907.63
2022-09-13T21:49:45.575Z,100915.72
2022-09-13T21:52:18.896Z,100921.13
2022-09-13T21:54:51.577Z,100915.72
2022-09-13T21:57:24.525Z,100917.34
2022-09-13T21:59:57.397Z,100917.34
2022-09-13T22:02:31.733Z,100910.22
2022-09-13T22:05:04.680Z,100911.63
2022-09-13T22:07:37.516Z,100906.41
2022-09-13T22:10:10.912Z,100906.94
2022-09-13T22:12:43.678Z,100916.09
2022-09-13T22:15:18.096Z,100911.97
2022-09-13T22:17:52.439Z,100913.13
2022-09-13T22:20:25.267Z,100907.09
2022-09-13T22:22:59.139Z,100895.25
2022-09-13T22:25:32.117Z,100885.88
2022-09-13T22:28:05.023Z,100892.13
2022-09-13T22:30:39.914Z,100899.44
2022-09-13T22:33:14.287Z,100897.88
2022-09-13T22:35:47.260Z,100894.44
2022-09-13T22:38:19.842Z,100894.75
2022-09-13T22:40:57.495Z,100890.22
2022-09-13T22:43:31.415Z,100890.75
2022-09-13T22:46:05.673Z,100891.13
2022-09-13T22:48:40.712Z,100888.34
2022-09-13T22:51:15.431Z,100887.13
2022-09-13T22:53:50.589Z,100878.09
2022-09-13T22:56:25.393Z,100880.09
2022-09-13T22:59:01.552Z,100881.88
2022-09-13T23:01:35.045Z,100876.84
2022-09-13T23:04:09.551Z,100870.59
2022-09-13T23:06:44.254Z,100870.75
2022-09-13T23:09:18.804Z,100863.63
2022-09-13T23:11:51.502Z,100875.22
2022-09-13T23:14:24.500Z,100877.47
2022-09-13T23:16:57.232Z,100870.25
2022-09-13T23:19:31.347Z,100871.56
2022-09-13T23:22:04.089Z,100858.34
2022-09-13T23:24:36.843Z,100862.25
2022-09-13T23:27:09.581Z,100864.69
2022-09-13T23:29:42.374Z,100864.25
2022-09-13T23:32:15.177Z,100862.25
2022-09-13T23:34:49.342Z,100870.44
2022-09-13T23:37:22.558Z,100866.78
2022-09-13T23:39:59.570Z,100859.97
2022-09-13T23:42:32.286Z,100863.72
2022-09-13T23:45:05.809Z,100856.97
2022-09-13T23:47:38.448Z,100857.38
2022-09-13T23:50:12.886Z,100851.41
2022-09-13T23:52:45.797Z,100851.19
2022-09-13T23:55:18.399Z,100847.38
2022-09-13T23:57:51.072Z,100844.16
